DW4554 Weather Reports


time (UTC)temp
F
wind
direction
speed
knots
gust
knots
rain 1hr
in
rain 24hr
in
rain mn
in
humidity
%
barometer
mb
20220813150903 76 18 7.8 17.4 0.00 0.00 0.00 69 1011.0
20220813150404 76 21 5.2 13.0 0.00 0.00 0.00 69 1011.0
20220813145904 76 39 5.2 11.3 0.00 0.00 0.00 68 1011.0
20220813145404 77 31 4.3 10.4 0.00 0.00 0.00 67 1010.9
20220813144904 77 33 6.1 14.8 0.00 0.00 0.00 66 1011.0
20220813142905 79 19 6.1 15.6 0.00 0.00 0.00 64 1010.9
20220813141904 79 26 4.3 10.4 0.00 0.00 0.00 64 1010.9
20220813140904 79 19 5.2 14.8 0.00 0.00 0.00 63 1011.0
20220813140404 80 28 8.7 13.9 0.00 0.00 0.00 63 1011.1
20220813134904 80 39 7.8 15.6 0.00 0.00 0.00 63 1011.1
20220813134404 80 10 6.1 12.2 0.00 0.00 0.00 63 1011.1
20220813133404 79 8 5.2 12.2 0.00 0.00 0.00 64 1011.1
20220813132904 79 22 6.1 13.9 0.00 0.00 0.00 63 1011.2
20220813131404 80 25 7.0 13.9 0.00 0.00 0.00 62 1011.3
20220813125404 80 0 5.2 10.4 0.00 0.00 0.00 62 1011.4
20220813124404 80 30 6.1 12.2 0.00 0.00 0.00 61 1011.5
20220813123904 80 18 6.1 10.4 0.00 0.00 0.00 61 1011.5
20220813122404 80 25 3.5 10.4 0.00 0.00 0.00 61 1011.6
20220813121904 80 24 5.2 13.0 0.00 0.00 0.00 61 1011.6
20220813121404 80 17 4.3 10.4 0.00 0.00 0.00 61 1011.6
20220813120404 80 34 4.3 11.3 0.00 0.00 0.00 61 1011.7
20220813114404 78 48 3.5 10.4 0.00 0.00 0.00 63 1011.8
20220813113904 78 45 5.2 13.9 0.00 0.00 0.00 62 1011.8
20220813113404 78 27 6.1 13.0 0.00 0.00 0.00 62 1011.9
20220813112905 78 56 7.0 10.4 0.00 0.00 0.00 63 1011.8
20220813111405 78 42 4.3 7.0 0.00 0.00 0.00 63 1011.9
20220813110404 78 7 2.6 8.7 0.00 0.00 0.00 65 1012.1
20220813105404 78 7 3.5 12.2 0.00 0.00 0.00 65 1012.2
20220813104904 78 32 5.2 11.3 0.00 0.00 0.00 65 1012.2
20220813103904 78 14 4.3 8.7 0.00 0.00 0.00 65 1012.4
20220813102904 77 31 6.1 12.2 0.00 0.00 0.00 65 1012.4
20220813101404 77 17 4.3 11.3 0.00 0.00 0.00 66 1012.5
20220813100904 77 26 5.2 11.3 0.00 0.00 0.00 66 1012.5
20220813100404 77 7 5.2 10.4 0.00 0.00 0.00 66 1012.6
20220813094404 77 30 6.1 12.2 0.00 0.00 0.00 65 1012.6
20220813093904 77 16 6.1 12.2 0.00 0.00 0.00 65 1012.6
20220813092904 77 344 4.3 10.4 0.00 0.00 0.00 66 1012.6
20220813092404 76 34 4.3 10.4 0.00 0.00 0.00 67 1012.5
20220813091904 76 29 5.2 10.4 0.00 0.00 0.00 66 1012.6
20220813090904 76 6 4.3 8.7 0.00 0.00 0.00 67 1012.6
20220813084404 75 28 4.3 10.4 0.00 0.00 0.00 68 1012.9
20220813082404 73 14 5.2 10.4 0.00 0.00 0.00 72 1013.0
20220813080404 72 352 1.7 6.1 0.00 0.00 0.00 76 1013.0
20220813074404 71 25 1.7 6.1 0.00 0.00 0.00 77 1013.1
20220813063904 63 51 4.3 10.4 0.00 0.00 0.00 91 1013.1
20220813061904 60 0 0.9 1.7 0.00 0.00 0.00 91 1013.2
20220813061404 59 0 0.0 2.6 0.00 0.00 0.00 91 1013.2
20220813060404 58 0 0.0 0.0 0.00 0.00 0.00 91 1013.3
20220813055904 58 0 0.0 1.7 0.00 0.00 0.00 91 1013.3
20220813054404 57 351 0.0 0.0 0.00 0.00 0.00 91 1013.3
20220813052904 56 351 0.0 0.0 0.00 0.00 0.00 91 1013.3
20220813051404 56 351 0.0 0.0 0.00 0.00 0.00 91 1013.4
20220813050904 55 351 0.0 0.0 0.00 0.00 0.00 91 1013.4
20220813050404 55 351 0.0 0.0 0.00 0.00 0.00 91 1013.5
20220813045904 55 351 0.0 0.0 0.00 0.00 0.00 90 1013.4
20220813044904 55 351 0.0 0.0 0.00 0.00 0.00 90 1013.4
20220813044404 55 351 0.0 0.0 0.00 0.00 0.00 90 1013.4
20220813043904 55 351 0.0 0.0 0.00 0.00 0.00 90 1013.5
20220813042404 55 351 0.0 0.0 0.00 0.00 0.00 90 1013.6
20220813041904 55 351 0.0 0.0 0.00 0.00 0.00 90 1013.6
20220813040405 55 92 0.0 0.0 0.00 0.00 0.00 90 1013.5
20220813035404 55 92 0.0 0.0 0.00 0.00 0.00 89 1013.6
20220813034904 55 92 0.0 0.0 0.00 0.00 0.00 89 1013.6
20220813034404 55 92 0.0 0.0 0.00 0.00 0.00 89 1013.7
20220813033404 55 92 0.0 0.0 0.00 0.00 0.00 89 1013.6
20220813032904 55 92 0.0 0.0 0.00 0.00 0.00 89 1013.5
20220813031404 55 92 0.0 0.0 0.00 0.00 0.00 89 1013.4
20220813030904 55 92 0.0 0.0 0.00 0.00 0.00 89 1013.5
20220813025904 55 92 0.0 0.0 0.00 0.00 0.00 89 1013.5
20220813024905 56 92 0.0 1.7 0.00 0.00 0.00 88 1013.5
20220813023904 56 92 1.7 2.6 0.00 0.00 0.00 88 1013.6
20220813023404 56 92 0.9 2.6 0.00 0.00 0.00 88 1013.7
20220813022904 56 92 0.9 2.6 0.00 0.00 0.00 87 1013.7
20220813021904 56 92 0.0 0.0 0.00 0.00 0.00 86 1013.8
20220813021404 56 92 0.0 0.9 0.00 0.00 0.00 86 1013.8
20220813020904 56 92 0.0 1.7 0.00 0.00 0.00 86 1013.9
20220813015404 57 92 0.0 0.0 0.00 0.00 0.00 85 1013.9
20220813014904 57 92 0.0 0.0 0.00 0.00 0.00 85 1014.0
20220813013904 57 92 0.0 0.0 0.00 0.00 0.00 85 1014.1
20220813012904 58 92 0.0 0.0 0.00 0.00 0.00 84 1014.1
20220813004404 59 92 0.0 0.0 0.00 0.00 0.00 83 1014.5
20220813003904 59 92 0.0 0.0 0.00 0.00 0.00 82 1014.5
20220813003404 60 92 0.0 0.0 0.00 0.00 0.00 82 1014.6
20220813002904 60 92 0.0 0.0 0.00 0.00 0.00 82 1014.6
20220813002404 60 92 0.0 0.0 0.00 0.00 0.00 82 1014.6
20220813001905 60 92 0.0 0.0 0.00 0.00 0.00 82 1014.6
20220813000905 60 92 0.0 0.0 0.00 0.00 0.00 81 1014.5
20220812235904 61 92 0.0 0.0 0.00 0.00 0.00 81 1014.7
20220812234404 61 92 0.0 0.0 0.00 0.00 0.00 81 1014.8
20220812233404 61 92 0.0 0.0 0.00 0.00 0.00 80 1014.9
20220812232904 62 92 0.0 0.0 0.00 0.00 0.00 80 1015.0
20220812232404 62 92 0.0 0.9 0.00 0.00 0.00 80 1015.1
20220812231904 62 92 0.9 14.8 0.00 0.00 0.00 80 1015.2
20220812230904 62 94 0.0 2.6 0.00 0.00 0.00 79 1015.2
20220812230404 63 94 0.0 1.7 0.00 0.00 0.00 78 1015.3
20220812225904 63 94 0.9 2.6 0.00 0.00 0.00 78 1015.3
20220812225404 63 94 0.0 0.0 0.00 0.00 0.00 78 1015.3
20220812224904 63 94 0.0 0.0 0.00 0.00 0.00 77 1015.3
20220812224404 64 94 0.0 0.0 0.00 0.00 0.00 77 1015.3
20220812223904 64 94 0.0 0.0 0.00 0.00 0.00 76 1015.3
20220812223404 64 94 0.0 0.0 0.00 0.00 0.00 76 1015.4
20220812222905 64 94 0.0 0.0 0.00 0.00 0.00 75 1015.4
20220812222404 64 94 0.0 0.0 0.00 0.00 0.00 75 1015.5
20220812221404 65 94 0.0 0.0 0.00 0.00 0.00 74 1015.5
20220812220404 65 94 0.0 0.0 0.00 0.00 0.00 74 1015.5
20220812215904 65 94 0.0 0.0 0.00 0.00 0.00 73 1015.4
20220812214904 66 94 0.0 0.0 0.00 0.00 0.00 73 1015.4
20220812214405 66 94 0.0 0.0 0.00 0.00 0.00 72 1015.4
20220812212404 67 94 0.9 1.7 0.00 0.00 0.00 71 1015.5
20220812211904 67 94 0.0 1.7 0.00 0.00 0.00 71 1015.4
20220812211404 67 92 0.9 2.6 0.00 0.00 0.00 70 1015.4
20220812210404 68 94 0.0 0.0 0.00 0.00 0.00 69 1015.3
20220812205904 68 94 0.0 0.9 0.00 0.00 0.00 69 1015.4
20220812205404 68 94 0.0 1.7 0.00 0.00 0.00 69 1015.4
20220812204404 68 100 0.9 4.3 0.00 0.00 0.00 68 1015.4
20220812203404 69 57 1.7 2.6 0.00 0.00 0.00 67 1015.4
20220812202904 69 66 0.0 2.6 0.00 0.00 0.00 67 1015.4
20220812201904 69 61 0.9 2.6 0.00 0.00 0.00 66 1015.4
20220812201404 70 62 1.7 2.6 0.00 0.00 0.00 66 1015.4
20220812195904 70 51 1.7 2.6 0.00 0.00 0.00 65 1015.4
20220812195404 70 24 2.6 6.1 0.00 0.00 0.00 64 1015.4
20220812194904 70 37 4.3 7.0 0.00 0.00 0.00 64 1015.5
20220812194404 71 57 0.9 2.6 0.00 0.00 0.00 64 1015.5
20220812193904 71 51 0.9 2.6 0.00 0.00 0.00 63 1015.6
20220812193404 71 50 1.7 2.6 0.00 0.00 0.00 63 1015.5
20220812192904 71 53 2.6 7.0 0.00 0.00 0.00 63 1015.4
20220812192404 71 49 4.3 10.4 0.00 0.00 0.00 62 1015.4
20220812185904 72 47 3.5 6.1 0.00 0.00 0.00 61 1015.3
20220812185405 72 51 2.6 6.1 0.00 0.00 0.00 60 1015.3
20220812184904 72 44 2.6 5.2 0.00 0.00 0.00 60 1015.3
20220812184404 73 51 3.5 7.0 0.00 0.00 0.00 60 1015.3
20220812183404 73 51 4.3 8.7 0.00 0.00 0.00 59 1015.3
20220812182405 73 41 5.2 8.7 0.00 0.00 0.00 58 1015.3
20220812181904 74 49 3.5 6.1 0.00 0.00 0.00 58 1015.3
20220812180904 74 45 3.5 8.7 0.00 0.00 0.00 57 1015.3
20220812180404 74 35 3.5 8.7 0.00 0.00 0.00 56 1015.2
20220812175404 74 25 3.5 8.7 0.00 0.00 0.00 56 1015.1
20220812174904 75 57 3.5 10.4 0.00 0.00 0.00 57 1015.1
20220812173904 75 17 3.5 8.7 0.00 0.00 0.00 57 1015.1
20220812170904 76 23 2.6 11.3 0.00 0.00 0.00 57 1015.1
20220812170404 76 30 2.6 7.8 0.00 0.00 0.00 57 1015.1
20220812164904 77 28 4.3 11.3 0.00 0.00 0.00 55 1015.3
20220812164405 77 50 4.3 11.3 0.00 0.00 0.00 55 1015.3
20220812162904 78 58 6.1 10.4 0.00 0.00 0.00 54 1015.3
20220812162404 78 46 6.1 13.0 0.00 0.00 0.00 54 1015.4
20220812160904 78 50 6.1 14.8 0.00 0.00 0.00 54 1015.3
20220812155904 78 27 5.2 8.7 0.00 0.00 0.00 54 1015.3
20220812154904 79 20 5.2 10.4 0.00 0.00 0.00 53 1015.4
20220812153405 79 33 4.3 7.0 0.00 0.00 0.00 53 1015.6
20220812152904 80 43 3.5 11.3 0.00 0.00 0.00 52 1015.5